sensor_id;sensor_type;location;lat;lon;timestamp;temperature;humidity
19060;DHT22;9663;48.996;8.334;2023-05-07T00:00:37;17.80;48.10
19060;DHT22;9663;48.996;8.334;2023-05-07T00:03:03;17.80;48.20
19060;DHT22;9663;48.996;8.334;2023-05-07T00:05:29;18.40;48.50
19060;DHT22;9663;48.996;8.334;2023-05-07T00:07:55;17.80;48.30
19060;DHT22;9663;48.996;8.334;2023-05-07T00:10:20;17.80;48.40
19060;DHT22;9663;48.996;8.334;2023-05-07T00:12:46;17.80;48.50
19060;DHT22;9663;48.996;8.334;2023-05-07T00:15:12;18.00;48.50
19060;DHT22;9663;48.996;8.334;2023-05-07T00:17:38;18.10;48.70
19060;DHT22;9663;48.996;8.334;2023-05-07T00:20:05;17.90;48.60
19060;DHT22;9663;48.996;8.334;2023-05-07T00:22:31;17.90;48.70
19060;DHT22;9663;48.996;8.334;2023-05-07T00:24:58;17.90;48.60
19060;DHT22;9663;48.996;8.334;2023-05-07T00:27:24;17.90;48.70
19060;DHT22;9663;48.996;8.334;2023-05-07T00:29:50;17.90;48.70
19060;DHT22;9663;48.996;8.334;2023-05-07T00:32:16;18.20;48.80
19060;DHT22;9663;48.996;8.334;2023-05-07T00:34:43;17.90;48.60
19060;DHT22;9663;48.996;8.334;2023-05-07T00:37:09;17.60;48.60
19060;DHT22;9663;48.996;8.334;2023-05-07T00:39:35;18.00;48.80
19060;DHT22;9663;48.996;8.334;2023-05-07T00:42:01;17.80;48.70
19060;DHT22;9663;48.996;8.334;2023-05-07T00:44:28;17.80;48.80
19060;DHT22;9663;48.996;8.334;2023-05-07T00:46:56;17.90;48.90
19060;DHT22;9663;48.996;8.334;2023-05-07T00:49:35;17.70;48.90
19060;DHT22;9663;48.996;8.334;2023-05-07T00:52:05;17.70;49.20
19060;DHT22;9663;48.996;8.334;2023-05-07T00:54:32;17.70;49.00
19060;DHT22;9663;48.996;8.334;2023-05-07T00:56:59;17.70;49.00
19060;DHT22;9663;48.996;8.334;2023-05-07T00:59:25;17.60;49.10
19060;DHT22;9663;48.996;8.334;2023-05-07T01:01:52;17.70;49.20
19060;DHT22;9663;48.996;8.334;2023-05-07T01:04:17;18.10;49.40
19060;DHT22;9663;48.996;8.334;2023-05-07T01:06:44;17.60;49.20
19060;DHT22;9663;48.996;8.334;2023-05-07T01:09:12;17.80;49.40
19060;DHT22;9663;48.996;8.334;2023-05-07T01:11:38;17.50;49.40
19060;DHT22;9663;48.996;8.334;2023-05-07T01:14:05;17.50;49.40
19060;DHT22;9663;48.996;8.334;2023-05-07T01:16:32;17.50;49.40
19060;DHT22;9663;48.996;8.334;2023-05-07T01:18:58;17.50;49.50
19060;DHT22;9663;48.996;8.334;2023-05-07T01:21:26;17.50;49.60
19060;DHT22;9663;48.996;8.334;2023-05-07T01:23:53;17.40;49.70
19060;DHT22;9663;48.996;8.334;2023-05-07T01:26:20;17.50;49.60
19060;DHT22;9663;48.996;8.334;2023-05-07T01:28:47;17.40;49.70
19060;DHT22;9663;48.996;8.334;2023-05-07T01:31:13;17.40;49.70
19060;DHT22;9663;48.996;8.334;2023-05-07T01:33:43;17.50;49.80
19060;DHT22;9663;48.996;8.334;2023-05-07T01:36:11;17.40;49.90
19060;DHT22;9663;48.996;8.334;2023-05-07T01:38:39;17.40;49.90
19060;DHT22;9663;48.996;8.334;2023-05-07T01:41:07;17.30;49.90
19060;DHT22;9663;48.996;8.334;2023-05-07T01:43:33;17.30;50.00
19060;DHT22;9663;48.996;8.334;2023-05-07T01:45:59;17.30;50.10
19060;DHT22;9663;48.996;8.334;2023-05-07T01:48:27;17.30;50.30
19060;DHT22;9663;48.996;8.334;2023-05-07T01:50:53;17.30;50.30
19060;DHT22;9663;48.996;8.334;2023-05-07T01:53:20;17.30;50.30
19060;DHT22;9663;48.996;8.334;2023-05-07T01:55:46;19.00;51.20
19060;DHT22;9663;48.996;8.334;2023-05-07T01:58:12;17.60;50.50
19060;DHT22;9663;48.996;8.334;2023-05-07T02:00:38;17.30;50.50
19060;DHT22;9663;48.996;8.334;2023-05-07T02:03:05;17.20;50.50
19060;DHT22;9663;48.996;8.334;2023-05-07T02:05:31;17.60;50.80
19060;DHT22;9663;48.996;8.334;2023-05-07T02:07:56;17.30;50.70
19060;DHT22;9663;48.996;8.334;2023-05-07T02:10:22;17.10;50.60
19060;DHT22;9663;48.996;8.334;2023-05-07T02:12:48;17.20;50.80
19060;DHT22;9663;48.996;8.334;2023-05-07T02:15:13;17.30;50.90
19060;DHT22;9663;48.996;8.334;2023-05-07T02:18:06;17.10;50.90
19060;DHT22;9663;48.996;8.334;2023-05-07T02:20:34;17.00;51.70
19060;DHT22;9663;48.996;8.334;2023-05-07T02:23:00;17.00;50.80
19060;DHT22;9663;48.996;8.334;2023-05-07T02:25:26;17.10;51.00
19060;DHT22;9663;48.996;8.334;2023-05-07T02:27:52;17.00;51.00
19060;DHT22;9663;48.996;8.334;2023-05-07T02:30:17;16.90;51.00
19060;DHT22;9663;48.996;8.334;2023-05-07T02:32:43;16.90;51.10
19060;DHT22;9663;48.996;8.334;2023-05-07T02:35:09;16.90;51.10
19060;DHT22;9663;48.996;8.334;2023-05-07T02:37:35;16.90;51.30
19060;DHT22;9663;48.996;8.334;2023-05-07T02:40:00;16.80;51.30
19060;DHT22;9663;48.996;8.334;2023-05-07T02:42:26;16.80;51.50
19060;DHT22;9663;48.996;8.334;2023-05-07T02:44:52;16.80;51.40
19060;DHT22;9663;48.996;8.334;2023-05-07T02:47:18;16.80;51.50
19060;DHT22;9663;48.996;8.334;2023-05-07T02:49:44;17.40;51.80
19060;DHT22;9663;48.996;8.334;2023-05-07T02:52:09;16.50;51.50
19060;DHT22;9663;48.996;8.334;2023-05-07T02:54:35;16.70;51.70
19060;DHT22;9663;48.996;8.334;2023-05-07T02:57:00;16.70;51.70
19060;DHT22;9663;48.996;8.334;2023-05-07T02:59:27;16.70;51.70
19060;DHT22;9663;48.996;8.334;2023-05-07T03:01:53;16.70;51.70
19060;DHT22;9663;48.996;8.334;2023-05-07T03:04:18;16.70;51.80
19060;DHT22;9663;48.996;8.334;2023-05-07T03:06:44;16.70;51.80
19060;DHT22;9663;48.996;8.334;2023-05-07T03:09:10;16.70;51.80
19060;DHT22;9663;48.996;8.334;2023-05-07T03:11:35;16.60;51.80
19060;DHT22;9663;48.996;8.334;2023-05-07T03:14:02;16.70;52.50
19060;DHT22;9663;48.996;8.334;2023-05-07T03:16:28;16.60;51.90
19060;DHT22;9663;48.996;8.334;2023-05-07T03:18:53;16.50;51.90
19060;DHT22;9663;48.996;8.334;2023-05-07T03:21:19;16.60;52.00
19060;DHT22;9663;48.996;8.334;2023-05-07T03:23:45;16.60;52.00
19060;DHT22;9663;48.996;8.334;2023-05-07T03:26:11;16.50;52.10
19060;DHT22;9663;48.996;8.334;2023-05-07T03:28:37;16.50;52.10
19060;DHT22;9663;48.996;8.334;2023-05-07T03:31:02;16.50;52.20
19060;DHT22;9663;48.996;8.334;2023-05-07T03:33:28;16.50;52.30
19060;DHT22;9663;48.996;8.334;2023-05-07T03:35:54;16.70;52.50
19060;DHT22;9663;48.996;8.334;2023-05-07T03:38:20;16.40;52.30
19060;DHT22;9663;48.996;8.334;2023-05-07T03:40:45;16.40;52.40
19060;DHT22;9663;48.996;8.334;2023-05-07T03:43:11;16.40;52.50
19060;DHT22;9663;48.996;8.334;2023-05-07T03:45:37;17.20;53.00
19060;DHT22;9663;48.996;8.334;2023-05-07T03:48:03;16.30;52.50
19060;DHT22;9663;48.996;8.334;2023-05-07T03:50:29;16.30;52.60
19060;DHT22;9663;48.996;8.334;2023-05-07T03:52:54;16.30;52.70
19060;DHT22;9663;48.996;8.334;2023-05-07T03:55:20;16.30;52.80
19060;DHT22;9663;48.996;8.334;2023-05-07T03:57:46;16.30;52.80
19060;DHT22;9663;48.996;8.334;2023-05-07T04:00:12;16.30;52.80
19060;DHT22;9663;48.996;8.334;2023-05-07T04:02:38;16.70;53.20
19060;DHT22;9663;48.996;8.334;2023-05-07T04:05:04;16.90;53.20
19060;DHT22;9663;48.996;8.334;2023-05-07T04:07:30;16.20;53.00
19060;DHT22;9663;48.996;8.334;2023-05-07T04:09:56;16.20;53.00
19060;DHT22;9663;48.996;8.334;2023-05-07T04:12:21;16.20;53.10
19060;DHT22;9663;48.996;8.334;2023-05-07T04:14:47;16.30;53.20
19060;DHT22;9663;48.996;8.334;2023-05-07T04:17:13;16.60;53.40
19060;DHT22;9663;48.996;8.334;2023-05-07T04:19:38;16.20;53.30
19060;DHT22;9663;48.996;8.334;2023-05-07T04:22:04;16.20;54.00
19060;DHT22;9663;48.996;8.334;2023-05-07T04:24:33;16.20;53.40
19060;DHT22;9663;48.996;8.334;2023-05-07T04:26:59;17.30;54.20
19060;DHT22;9663;48.996;8.334;2023-05-07T04:29:24;16.20;53.50
19060;DHT22;9663;48.996;8.334;2023-05-07T04:31:50;16.20;53.50
19060;DHT22;9663;48.996;8.334;2023-05-07T04:34:16;16.50;53.70
19060;DHT22;9663;48.996;8.334;2023-05-07T04:36:42;16.30;53.70
19060;DHT22;9663;48.996;8.334;2023-05-07T04:39:07;16.30;53.70
19060;DHT22;9663;48.996;8.334;2023-05-07T04:41:35;16.30;53.70
19060;DHT22;9663;48.996;8.334;2023-05-07T04:44:01;16.40;53.70
19060;DHT22;9663;48.996;8.334;2023-05-07T04:46:29;16.40;53.70
19060;DHT22;9663;48.996;8.334;2023-05-07T04:48:55;16.50;53.80
19060;DHT22;9663;48.996;8.334;2023-05-07T04:51:21;16.50;53.70
19060;DHT22;9663;48.996;8.334;2023-05-07T04:53:48;16.50;53.80
19060;DHT22;9663;48.996;8.334;2023-05-07T04:56:14;16.60;53.90
19060;DHT22;9663;48.996;8.334;2023-05-07T04:58:40;16.60;53.90
19060;DHT22;9663;48.996;8.334;2023-05-07T05:01:05;16.70;54.50
19060;DHT22;9663;48.996;8.334;2023-05-07T05:03:31;16.70;53.80
19060;DHT22;9663;48.996;8.334;2023-05-07T05:05:57;16.80;53.90
19060;DHT22;9663;48.996;8.334;2023-05-07T05:08:24;17.60;54.20
19060;DHT22;9663;48.996;8.334;2023-05-07T05:10:51;16.90;53.80
19060;DHT22;9663;48.996;8.334;2023-05-07T05:13:16;16.90;53.80
19060;DHT22;9663;48.996;8.334;2023-05-07T05:15:42;16.90;53.80
19060;DHT22;9663;48.996;8.334;2023-05-07T05:18:08;17.00;53.80
19060;DHT22;9663;48.996;8.334;2023-05-07T05:20:34;17.00;53.80
19060;DHT22;9663;48.996;8.334;2023-05-07T05:23:00;17.10;53.90
19060;DHT22;9663;48.996;8.334;2023-05-07T05:25:25;17.10;53.80
19060;DHT22;9663;48.996;8.334;2023-05-07T05:27:51;17.20;53.90
19060;DHT22;9663;48.996;8.334;2023-05-07T05:30:17;17.40;53.90
19060;DHT22;9663;48.996;8.334;2023-05-07T05:32:42;17.90;54.10
19060;DHT22;9663;48.996;8.334;2023-05-07T05:35:08;17.40;53.80
19060;DHT22;9663;48.996;8.334;2023-05-07T05:37:34;18.70;54.40
19060;DHT22;9663;48.996;8.334;2023-05-07T05:39:59;17.60;53.80
19060;DHT22;9663;48.996;8.334;2023-05-07T05:42:25;17.60;53.80
19060;DHT22;9663;48.996;8.334;2023-05-07T05:44:51;17.70;53.90
19060;DHT22;9663;48.996;8.334;2023-05-07T05:47:16;17.80;53.70
19060;DHT22;9663;48.996;8.334;2023-05-07T05:49:42;17.80;53.70
19060;DHT22;9663;48.996;8.334;2023-05-07T05:52:08;18.00;53.70
19060;DHT22;9663;48.996;8.334;2023-05-07T05:54:35;18.20;53.70
19060;DHT22;9663;48.996;8.334;2023-05-07T05:57:01;18.00;53.60
19060;DHT22;9663;48.996;8.334;2023-05-07T05:59:29;18.20;53.70
19060;DHT22;9663;48.996;8.334;2023-05-07T06:01:55;19.70;54.40
19060;DHT22;9663;48.996;8.334;2023-05-07T06:04:20;18.30;53.60
19060;DHT22;9663;48.996;8.334;2023-05-07T06:06:46;18.40;53.50
19060;DHT22;9663;48.996;8.334;2023-05-07T06:09:12;18.50;53.50
19060;DHT22;9663;48.996;8.334;2023-05-07T06:11:37;18.60;53.50
19060;DHT22;9663;48.996;8.334;2023-05-07T06:14:03;18.60;53.40
19060;DHT22;9663;48.996;8.334;2023-05-07T06:16:29;18.70;53.40
19060;DHT22;9663;48.996;8.334;2023-05-07T06:18:55;18.80;53.40
19060;DHT22;9663;48.996;8.334;2023-05-07T06:21:20;19.80;53.80
19060;DHT22;9663;48.996;8.334;2023-05-07T06:23:46;19.00;53.40
19060;DHT22;9663;48.996;8.334;2023-05-07T06:26:12;18.80;53.10
19060;DHT22;9663;48.996;8.334;2023-05-07T06:28:37;19.80;53.50
19060;DHT22;9663;48.996;8.334;2023-05-07T06:31:18;19.20;53.10
19060;DHT22;9663;48.996;8.334;2023-05-07T06:33:48;19.40;53.40
19060;DHT22;9663;48.996;8.334;2023-05-07T06:36:14;19.50;53.00
19060;DHT22;9663;48.996;8.334;2023-05-07T06:38:41;19.60;53.00
19060;DHT22;9663;48.996;8.334;2023-05-07T06:41:07;19.70;52.90
19060;DHT22;9663;48.996;8.334;2023-05-07T06:43:33;19.80;52.90
19060;DHT22;9663;48.996;8.334;2023-05-07T06:45:58;19.90;53.50
19060;DHT22;9663;48.996;8.334;2023-05-07T06:48:24;20.00;52.70
19060;DHT22;9663;48.996;8.334;2023-05-07T06:50:50;20.10;52.60
19060;DHT22;9663;48.996;8.334;2023-05-07T06:53:15;20.60;52.70
19060;DHT22;9663;48.996;8.334;2023-05-07T06:55:41;20.20;52.40
19060;DHT22;9663;48.996;8.334;2023-05-07T06:58:07;20.40;52.30
19060;DHT22;9663;48.996;8.334;2023-05-07T07:00:33;20.40;52.30
19060;DHT22;9663;48.996;8.334;2023-05-07T07:02:58;20.50;52.40
19060;DHT22;9663;48.996;8.334;2023-05-07T07:05:25;20.70;52.50
19060;DHT22;9663;48.996;8.334;2023-05-07T07:07:51;20.80;52.30
19060;DHT22;9663;48.996;8.334;2023-05-07T07:10:20;20.90;52.20
19060;DHT22;9663;48.996;8.334;2023-05-07T07:12:46;21.10;52.20
19060;DHT22;9663;48.996;8.334;2023-05-07T07:15:12;21.20;52.00
19060;DHT22;9663;48.996;8.334;2023-05-07T07:17:38;21.20;51.80
19060;DHT22;9663;48.996;8.334;2023-05-07T07:20:05;21.30;51.70
19060;DHT22;9663;48.996;8.334;2023-05-07T07:22:31;21.80;51.80
19060;DHT22;9663;48.996;8.334;2023-05-07T07:24:57;21.40;51.50
19060;DHT22;9663;48.996;8.334;2023-05-07T07:27:22;21.30;51.30
19060;DHT22;9663;48.996;8.334;2023-05-07T07:29:48;21.50;51.20
19060;DHT22;9663;48.996;8.334;2023-05-07T07:32:14;21.80;51.20
19060;DHT22;9663;48.996;8.334;2023-05-07T07:34:39;21.50;51.00
19060;DHT22;9663;48.996;8.334;2023-05-07T07:37:05;21.50;50.90
19060;DHT22;9663;48.996;8.334;2023-05-07T07:39:34;21.40;50.90
19060;DHT22;9663;48.996;8.334;2023-05-07T07:42:03;21.40;51.00
19060;DHT22;9663;48.996;8.334;2023-05-07T07:44:28;21.40;51.00
19060;DHT22;9663;48.996;8.334;2023-05-07T07:46:54;21.40;51.80
19060;DHT22;9663;48.996;8.334;2023-05-07T07:49:20;21.40;51.80
19060;DHT22;9663;48.996;8.334;2023-05-07T07:51:46;21.40;51.10
19060;DHT22;9663;48.996;8.334;2023-05-07T07:54:12;21.40;51.20
19060;DHT22;9663;48.996;8.334;2023-05-07T07:56:38;21.50;51.40
19060;DHT22;9663;48.996;8.334;2023-05-07T07:59:03;21.60;52.00
19060;DHT22;9663;48.996;8.334;2023-05-07T08:01:30;21.70;51.30
19060;DHT22;9663;48.996;8.334;2023-05-07T08:03:56;21.90;51.40
19060;DHT22;9663;48.996;8.334;2023-05-07T08:06:24;22.00;51.20
19060;DHT22;9663;48.996;8.334;2023-05-07T08:08:51;22.10;51.20
19060;DHT22;9663;48.996;8.334;2023-05-07T08:11:17;22.30;51.30
19060;DHT22;9663;48.996;8.334;2023-05-07T08:13:43;22.40;51.20
19060;DHT22;9663;48.996;8.334;2023-05-07T08:16:09;22.60;51.10
19060;DHT22;9663;48.996;8.334;2023-05-07T08:18:35;22.70;51.10
19060;DHT22;9663;48.996;8.334;2023-05-07T08:21:01;22.90;50.90
19060;DHT22;9663;48.996;8.334;2023-05-07T08:23:27;23.00;50.80
19060;DHT22;9663;48.996;8.334;2023-05-07T08:25:54;23.20;50.50
19060;DHT22;9663;48.996;8.334;2023-05-07T08:28:20;23.20;50.10
19060;DHT22;9663;48.996;8.334;2023-05-07T08:30:46;23.30;50.10
19060;DHT22;9663;48.996;8.334;2023-05-07T08:33:13;23.30;50.00
19060;DHT22;9663;48.996;8.334;2023-05-07T08:35:38;23.30;50.00
19060;DHT22;9663;48.996;8.334;2023-05-07T08:38:04;23.40;50.00
19060;DHT22;9663;48.996;8.334;2023-05-07T08:40:36;23.40;50.00
19060;DHT22;9663;48.996;8.334;2023-05-07T08:43:05;23.40;49.70
19060;DHT22;9663;48.996;8.334;2023-05-07T08:45:33;23.20;49.60
19060;DHT22;9663;48.996;8.334;2023-05-07T08:48:02;23.50;49.80
19060;DHT22;9663;48.996;8.334;2023-05-07T08:50:30;23.50;49.90
19060;DHT22;9663;48.996;8.334;2023-05-07T08:52:56;23.60;50.00
19060;DHT22;9663;48.996;8.334;2023-05-07T08:55:23;23.70;49.80
19060;DHT22;9663;48.996;8.334;2023-05-07T08:57:50;23.70;49.50
19060;DHT22;9663;48.996;8.334;2023-05-07T09:00:18;23.70;49.20
19060;DHT22;9663;48.996;8.334;2023-05-07T09:02:43;23.80;49.40
19060;DHT22;9663;48.996;8.334;2023-05-07T09:05:09;23.80;49.60
19060;DHT22;9663;48.996;8.334;2023-05-07T09:07:35;23.70;49.40
19060;DHT22;9663;48.996;8.334;2023-05-07T09:10:02;24.00;49.60
19060;DHT22;9663;48.996;8.334;2023-05-07T09:12:29;24.10;49.50
19060;DHT22;9663;48.996;8.334;2023-05-07T09:14:56;24.20;49.40
19060;DHT22;9663;48.996;8.334;2023-05-07T09:17:22;24.30;49.30
19060;DHT22;9663;48.996;8.334;2023-05-07T09:19:48;23.30;48.80
19060;DHT22;9663;48.996;8.334;2023-05-07T09:22:14;24.50;49.20
19060;DHT22;9663;48.996;8.334;2023-05-07T09:24:40;24.70;49.00
19060;DHT22;9663;48.996;8.334;2023-05-07T09:27:06;24.70;48.80
19060;DHT22;9663;48.996;8.334;2023-05-07T09:29:35;24.80;48.70
19060;DHT22;9663;48.996;8.334;2023-05-07T09:32:03;24.80;48.70
19060;DHT22;9663;48.996;8.334;2023-05-07T09:34:30;24.90;48.50
19060;DHT22;9663;48.996;8.334;2023-05-07T09:36:58;25.00;48.40
19060;DHT22;9663;48.996;8.334;2023-05-07T09:39:25;25.00;48.40
19060;DHT22;9663;48.996;8.334;2023-05-07T09:41:51;25.10;48.40
19060;DHT22;9663;48.996;8.334;2023-05-07T09:44:20;25.30;48.50
19060;DHT22;9663;48.996;8.334;2023-05-07T09:46:53;25.40;48.30
19060;DHT22;9663;48.996;8.334;2023-05-07T09:49:22;25.50;48.10
19060;DHT22;9663;48.996;8.334;2023-05-07T09:51:50;25.60;48.00
19060;DHT22;9663;48.996;8.334;2023-05-07T09:54:18;25.80;47.80
19060;DHT22;9663;48.996;8.334;2023-05-07T09:56:45;25.80;47.60
19060;DHT22;9663;48.996;8.334;2023-05-07T09:59:15;25.90;47.50
19060;DHT22;9663;48.996;8.334;2023-05-07T10:01:43;25.90;47.30
19060;DHT22;9663;48.996;8.334;2023-05-07T10:04:10;26.00;47.40
19060;DHT22;9663;48.996;8.334;2023-05-07T10:06:37;26.10;47.10
19060;DHT22;9663;48.996;8.334;2023-05-07T10:09:04;26.00;46.60
19060;DHT22;9663;48.996;8.334;2023-05-07T10:11:33;26.10;46.50
19060;DHT22;9663;48.996;8.334;2023-05-07T10:14:00;26.20;46.40
19060;DHT22;9663;48.996;8.334;2023-05-07T10:16:31;26.10;46.20
19060;DHT22;9663;48.996;8.334;2023-05-07T10:19:03;26.20;46.40
19060;DHT22;9663;48.996;8.334;2023-05-07T10:21:36;26.20;46.70
19060;DHT22;9663;48.996;8.334;2023-05-07T10:24:09;26.30;46.80
19060;DHT22;9663;48.996;8.334;2023-05-07T10:26:50;26.50;47.30
19060;DHT22;9663;48.996;8.334;2023-05-07T10:32:56;26.80;46.20
19060;DHT22;9663;48.996;8.334;2023-05-07T10:35:37;26.90;46.20
19060;DHT22;9663;48.996;8.334;2023-05-07T10:38:06;27.10;46.10
19060;DHT22;9663;48.996;8.334;2023-05-07T10:40:33;27.10;45.70
19060;DHT22;9663;48.996;8.334;2023-05-07T10:43:01;27.20;45.50
19060;DHT22;9663;48.996;8.334;2023-05-07T10:45:29;27.20;45.30
19060;DHT22;9663;48.996;8.334;2023-05-07T10:48:15;27.30;45.30
19060;DHT22;9663;48.996;8.334;2023-05-07T10:50:43;27.30;44.90
19060;DHT22;9663;48.996;8.334;2023-05-07T10:53:21;27.40;45.30
19060;DHT22;9663;48.996;8.334;2023-05-07T10:58:44;27.80;45.30
19060;DHT22;9663;48.996;8.334;2023-05-07T11:01:10;27.80;45.40
19060;DHT22;9663;48.996;8.334;2023-05-07T11:04:13;28.10;45.50
19060;DHT22;9663;48.996;8.334;2023-05-07T11:06:40;28.30;44.60
19060;DHT22;9663;48.996;8.334;2023-05-07T11:09:07;28.50;45.10
19060;DHT22;9663;48.996;8.334;2023-05-07T11:11:49;28.80;45.00
19060;DHT22;9663;48.996;8.334;2023-05-07T11:14:43;29.00;43.90
19060;DHT22;9663;48.996;8.334;2023-05-07T11:17:10;29.20;43.50
19060;DHT22;9663;48.996;8.334;2023-05-07T11:19:56;29.40;44.20
19060;DHT22;9663;48.996;8.334;2023-05-07T11:25:02;29.60;43.10
19060;DHT22;9663;48.996;8.334;2023-05-07T11:27:29;29.90;43.60
19060;DHT22;9663;48.996;8.334;2023-05-07T11:29:55;30.30;44.10
19060;DHT22;9663;48.996;8.334;2023-05-07T11:32:30;30.80;43.90
19060;DHT22;9663;48.996;8.334;2023-05-07T11:35:00;31.30;42.30
19060;DHT22;9663;48.996;8.334;2023-05-07T11:37:27;31.60;42.30
19060;DHT22;9663;48.996;8.334;2023-05-07T11:40:07;31.80;42.30
19060;DHT22;9663;48.996;8.334;2023-05-07T11:42:37;32.20;41.40
19060;DHT22;9663;48.996;8.334;2023-05-07T11:45:06;32.60;42.20
19060;DHT22;9663;48.996;8.334;2023-05-07T11:47:33;33.00;41.80
19060;DHT22;9663;48.996;8.334;2023-05-07T11:50:07;33.00;41.10
19060;DHT22;9663;48.996;8.334;2023-05-07T11:52:33;33.70;40.40
19060;DHT22;9663;48.996;8.334;2023-05-07T11:55:01;34.10;41.40
19060;DHT22;9663;48.996;8.334;2023-05-07T11:57:29;34.60;41.10
19060;DHT22;9663;48.996;8.334;2023-05-07T11:59:59;35.10;40.10
19060;DHT22;9663;48.996;8.334;2023-05-07T12:02:27;35.40;39.10
19060;DHT22;9663;48.996;8.334;2023-05-07T12:04:54;35.10;37.80
19060;DHT22;9663;48.996;8.334;2023-05-07T12:07:20;35.30;37.30
19060;DHT22;9663;48.996;8.334;2023-05-07T12:09:47;35.00;37.20
19060;DHT22;9663;48.996;8.334;2023-05-07T12:12:13;34.80;37.20
19060;DHT22;9663;48.996;8.334;2023-05-07T12:14:43;34.70;37.60
19060;DHT22;9663;48.996;8.334;2023-05-07T12:17:12;34.70;37.80
19060;DHT22;9663;48.996;8.334;2023-05-07T12:19:40;34.90;38.10
19060;DHT22;9663;48.996;8.334;2023-05-07T12:22:08;35.00;37.80
19060;DHT22;9663;48.996;8.334;2023-05-07T12:24:47;35.20;37.80
19060;DHT22;9663;48.996;8.334;2023-05-07T12:27:16;35.10;35.40
19060;DHT22;9663;48.996;8.334;2023-05-07T12:29:51;34.80;36.00
19060;DHT22;9663;48.996;8.334;2023-05-07T12:32:19;34.50;34.90
19060;DHT22;9663;48.996;8.334;2023-05-07T12:34:49;34.10;35.50
19060;DHT22;9663;48.996;8.334;2023-05-07T12:37:15;33.60;35.60
19060;DHT22;9663;48.996;8.334;2023-05-07T12:39:48;33.20;35.80
19060;DHT22;9663;48.996;8.334;2023-05-07T12:42:16;32.50;35.30
19060;DHT22;9663;48.996;8.334;2023-05-07T12:44:45;32.40;36.00
19060;DHT22;9663;48.996;8.334;2023-05-07T12:47:13;31.90;36.10
19060;DHT22;9663;48.996;8.334;2023-05-07T12:49:41;31.70;36.70
19060;DHT22;9663;48.996;8.334;2023-05-07T12:52:07;31.50;37.10
19060;DHT22;9663;48.996;8.334;2023-05-07T12:54:35;31.50;37.30
19060;DHT22;9663;48.996;8.334;2023-05-07T12:57:08;31.30;37.20
19060;DHT22;9663;48.996;8.334;2023-05-07T12:59:41;31.10;37.00
19060;DHT22;9663;48.996;8.334;2023-05-07T13:02:08;31.00;37.40
19060;DHT22;9663;48.996;8.334;2023-05-07T13:04:34;31.00;37.50
19060;DHT22;9663;48.996;8.334;2023-05-07T13:07:01;31.10;37.50
19060;DHT22;9663;48.996;8.334;2023-05-07T13:09:28;31.10;37.80
19060;DHT22;9663;48.996;8.334;2023-05-07T13:11:57;31.10;37.80
19060;DHT22;9663;48.996;8.334;2023-05-07T13:14:25;30.90;37.70
19060;DHT22;9663;48.996;8.334;2023-05-07T13:16:51;31.10;38.10
19060;DHT22;9663;48.996;8.334;2023-05-07T13:19:16;31.30;38.70
19060;DHT22;9663;48.996;8.334;2023-05-07T13:21:42;31.70;38.60
19060;DHT22;9663;48.996;8.334;2023-05-07T13:24:08;32.10;38.50
19060;DHT22;9663;48.996;8.334;2023-05-07T13:26:34;32.50;38.20
19060;DHT22;9663;48.996;8.334;2023-05-07T13:29:00;32.70;37.30
19060;DHT22;9663;48.996;8.334;2023-05-07T13:31:26;32.80;37.00
19060;DHT22;9663;48.996;8.334;2023-05-07T13:33:51;32.80;36.90
19060;DHT22;9663;48.996;8.334;2023-05-07T13:36:18;32.80;36.90
19060;DHT22;9663;48.996;8.334;2023-05-07T13:38:43;32.80;36.40
19060;DHT22;9663;48.996;8.334;2023-05-07T13:41:09;32.80;36.30
19060;DHT22;9663;48.996;8.334;2023-05-07T13:43:35;32.80;36.40
19060;DHT22;9663;48.996;8.334;2023-05-07T13:46:01;32.80;37.00
19060;DHT22;9663;48.996;8.334;2023-05-07T13:48:27;32.80;37.30
19060;DHT22;9663;48.996;8.334;2023-05-07T13:50:53;32.90;37.10
19060;DHT22;9663;48.996;8.334;2023-05-07T13:53:19;33.40;37.00
19060;DHT22;9663;48.996;8.334;2023-05-07T13:55:45;33.40;36.80
19060;DHT22;9663;48.996;8.334;2023-05-07T13:58:11;33.60;36.30
19060;DHT22;9663;48.996;8.334;2023-05-07T14:00:37;33.60;35.80
19060;DHT22;9663;48.996;8.334;2023-05-07T14:03:04;33.60;35.30
19060;DHT22;9663;48.996;8.334;2023-05-07T14:05:34;33.30;34.80
19060;DHT22;9663;48.996;8.334;2023-05-07T14:08:01;33.00;34.50
19060;DHT22;9663;48.996;8.334;2023-05-07T14:10:27;32.60;34.50
19060;DHT22;9663;48.996;8.334;2023-05-07T14:12:52;32.10;35.40
19060;DHT22;9663;48.996;8.334;2023-05-07T14:15:18;31.70;35.00
19060;DHT22;9663;48.996;8.334;2023-05-07T14:17:44;31.30;35.10
19060;DHT22;9663;48.996;8.334;2023-05-07T14:20:10;30.90;35.50
19060;DHT22;9663;48.996;8.334;2023-05-07T14:22:37;30.40;35.80
19060;DHT22;9663;48.996;8.334;2023-05-07T14:25:02;30.20;36.20
19060;DHT22;9663;48.996;8.334;2023-05-07T14:27:28;29.90;36.40
19060;DHT22;9663;48.996;8.334;2023-05-07T14:29:54;29.80;36.70
19060;DHT22;9663;48.996;8.334;2023-05-07T14:32:21;29.60;36.90
19060;DHT22;9663;48.996;8.334;2023-05-07T14:34:47;29.50;37.00
19060;DHT22;9663;48.996;8.334;2023-05-07T14:37:13;29.40;37.00
19060;DHT22;9663;48.996;8.334;2023-05-07T14:39:39;29.30;37.00
19060;DHT22;9663;48.996;8.334;2023-05-07T14:42:05;29.30;37.10
19060;DHT22;9663;48.996;8.334;2023-05-07T14:44:36;29.00;37.10
19060;DHT22;9663;48.996;8.334;2023-05-07T14:47:02;28.90;37.20
19060;DHT22;9663;48.996;8.334;2023-05-07T14:49:28;28.90;37.30
19060;DHT22;9663;48.996;8.334;2023-05-07T14:51:56;28.80;37.30
19060;DHT22;9663;48.996;8.334;2023-05-07T14:54:23;28.80;37.20
19060;DHT22;9663;48.996;8.334;2023-05-07T14:56:49;28.60;37.00
19060;DHT22;9663;48.996;8.334;2023-05-07T14:59:15;28.50;37.00
19060;DHT22;9663;48.996;8.334;2023-05-07T15:01:44;28.40;37.20
19060;DHT22;9663;48.996;8.334;2023-05-07T15:04:10;28.40;37.40
19060;DHT22;9663;48.996;8.334;2023-05-07T15:06:36;28.50;37.70
19060;DHT22;9663;48.996;8.334;2023-05-07T15:09:02;28.10;37.50
19060;DHT22;9663;48.996;8.334;2023-05-07T15:11:28;28.30;37.80
19060;DHT22;9663;48.996;8.334;2023-05-07T15:13:54;28.00;37.70
19060;DHT22;9663;48.996;8.334;2023-05-07T15:16:20;27.90;37.70
19060;DHT22;9663;48.996;8.334;2023-05-07T15:18:45;27.80;37.80
19060;DHT22;9663;48.996;8.334;2023-05-07T15:21:12;27.50;37.70
19060;DHT22;9663;48.996;8.334;2023-05-07T15:23:38;27.70;38.00
19060;DHT22;9663;48.996;8.334;2023-05-07T15:26:04;27.60;38.20
19060;DHT22;9663;48.996;8.334;2023-05-07T15:28:30;27.50;38.40
19060;DHT22;9663;48.996;8.334;2023-05-07T15:30:56;27.40;38.70
19060;DHT22;9663;48.996;8.334;2023-05-07T15:33:23;27.40;38.90
19060;DHT22;9663;48.996;8.334;2023-05-07T15:35:49;27.30;38.90
19060;DHT22;9663;48.996;8.334;2023-05-07T15:38:15;27.20;39.10
19060;DHT22;9663;48.996;8.334;2023-05-07T15:40:41;27.10;39.30
19060;DHT22;9663;48.996;8.334;2023-05-07T15:43:08;27.10;39.50
19060;DHT22;9663;48.996;8.334;2023-05-07T15:45:42;27.00;39.50
19060;DHT22;9663;48.996;8.334;2023-05-07T15:48:09;27.10;39.90
19060;DHT22;9663;48.996;8.334;2023-05-07T15:50:35;27.10;39.80
19060;DHT22;9663;48.996;8.334;2023-05-07T15:53:01;27.00;39.60